Time;durP1;ratioP1;P1;durP2;ratioP2;P2;SDS_P1;SDS_P2;PMS_P1;PMS_P2;Temp;Humidity;BMP_temperature;BMP_pressure;BME280_temperature;BME280_humidity;BME280_pressure;Samples;Min_cycle;Max_cycle;Signal;HPM_P1;HPM_P2
2021/11/03 00:00:41;;;;;;;7.72;6.60;;;;;;;;;;10355118;28;20463;-71
2021/11/03 00:05:45;;;;;;;6.47;5.20;;;;;;;;;;10339179;28;20030;-71
2021/11/03 00:10:46;;;;;;;10.05;6.05;;;;;;;;;;10339460;28;20110;-71
2021/11/03 00:15:46;;;;;;;8.48;6.32;;;;;;;;;;10352864;28;20022;-70
2021/11/03 00:20:46;;;;;;;10.00;5.38;;;;;;;;;;10336768;28;20026;-71
2021/11/03 00:25:47;;;;;;;6.93;5.95;;;;;;;;;;10338602;28;20027;-72
2021/11/03 00:30:49;;;;;;;8.52;6.35;;;;;;;;;;10337096;28;20365;-70
2021/11/03 00:35:50;;;;;;;6.70;6.07;;;;;;;;;;10337712;28;20057;-71
2021/11/03 00:40:50;;;;;;;6.38;5.78;;;;;;;;;;10336499;28;20037;-69
2021/11/03 00:45:50;;;;;;;6.97;5.77;;;;;;;;;;10338074;28;20054;-73
2021/11/03 00:50:51;;;;;;;9.30;7.10;;;;;;;;;;10336359;28;20304;-70
2021/11/03 00:55:51;;;;;;;7.43;6.47;;;;;;;;;;10336593;28;20458;-70
2021/11/03 01:00:51;;;;;;;9.30;6.63;;;;;;;;;;10335664;28;20032;-72
2021/11/03 01:05:51;;;;;;;10.60;9.40;;;;;;;;;;10335874;28;20095;-71
2021/11/03 01:10:52;;;;;;;10.55;9.50;;;;;;;;;;10336189;28;20432;-70
2021/11/03 01:15:52;;;;;;;11.57;9.45;;;;;;;;;;10335728;28;20555;-71
2021/11/03 01:20:53;;;;;;;13.68;10.35;;;;;;;;;;10350619;28;20018;-70
2021/11/03 01:25:53;;;;;;;11.18;9.80;;;;;;;;;;10335782;28;20511;-71
2021/11/03 01:30:55;;;;;;;13.43;9.55;;;;;;;;;;10334614;28;20061;-70
2021/11/03 01:35:55;;;;;;;11.60;9.38;;;;;;;;;;10349961;28;20476;-70
2021/11/03 01:40:55;;;;;;;13.43;10.75;;;;;;;;;;10334146;28;20061;-70
2021/11/03 01:46:13;;;;;;;11.30;9.55;;;;;;;;;;10334517;28;20030;-70
2021/11/03 01:51:19;;;;;;;22.45;11.05;;;;;;;;;;10334502;28;20140;-71
2021/11/03 01:56:19;;;;;;;16.80;12.18;;;;;;;;;;10351164;28;20164;-70
2021/11/03 02:01:20;;;;;;;12.25;11.05;;;;;;;;;;10334238;28;20184;-70
2021/11/03 02:06:21;;;;;;;15.95;11.88;;;;;;;;;;10333953;28;20506;-71
2021/11/03 02:11:22;;;;;;;16.63;14.27;;;;;;;;;;10333990;28;20104;-74
2021/11/03 02:16:22;;;;;;;17.25;12.25;;;;;;;;;;10331952;28;20072;-74
2021/11/03 02:21:25;;;;;;;3.42;2.25;;;;;;;;;;10348121;28;20076;-74
2021/11/03 02:26:26;;;;;;;1.83;1.40;;;;;;;;;;10348129;28;20030;-73
2021/11/03 02:31:33;;;;;;;1.20;1.20;;;;;;;;;;10333717;28;20065;-75
2021/11/03 02:36:33;;;;;;;1.83;1.73;;;;;;;;;;10333513;28;20104;-75
2021/11/03 02:41:34;;;;;;;4.43;3.30;;;;;;;;;;10333810;28;20266;-75
2021/11/03 02:46:35;;;;;;;9.23;4.57;;;;;;;;;;10348840;28;20432;-75
2021/11/03 02:51:35;;;;;;;4.88;3.53;;;;;;;;;;10338696;28;20046;-75
2021/11/03 02:56:36;;;;;;;9.30;5.07;;;;;;;;;;10341306;28;20034;-75
2021/11/03 03:01:36;;;;;;;7.22;5.50;;;;;;;;;;10339662;28;20163;-75
2021/11/03 03:06:37;;;;;;;5.05;4.55;;;;;;;;;;10340725;28;20033;-74
2021/11/03 03:11:38;;;;;;;5.22;4.75;;;;;;;;;;10338984;28;20081;-75
2021/11/03 03:16:38;;;;;;;7.72;4.53;;;;;;;;;;10356104;28;20033;-73
2021/11/03 03:21:38;;;;;;;4.72;4.32;;;;;;;;;;10340256;28;20515;-74
2021/11/03 03:26:38;;;;;;;5.60;3.75;;;;;;;;;;10356849;28;20349;-74
2021/11/03 03:31:39;;;;;;;5.38;4.40;;;;;;;;;;10339232;28;20030;-74
2021/11/03 03:36:39;;;;;;;4.32;3.85;;;;;;;;;;10354534;28;20276;-74
2021/11/03 03:41:40;;;;;;;10.10;5.97;;;;;;;;;;10354989;28;20030;-75
2021/11/03 03:46:41;;;;;;;12.98;6.20;;;;;;;;;;10339240;28;20418;-75
2021/11/03 03:51:41;;;;;;;10.05;6.95;;;;;;;;;;10338656;28;20121;-73
2021/11/03 03:56:41;;;;;;;9.10;8.23;;;;;;;;;;10354092;28;20042;-74
2021/11/03 04:01:41;;;;;;;12.88;8.43;;;;;;;;;;10336342;28;20081;-75
2021/11/03 04:06:41;;;;;;;8.30;7.50;;;;;;;;;;10338208;28;20033;-73
2021/11/03 04:11:42;;;;;;;10.70;8.40;;;;;;;;;;10340717;28;20510;-72
2021/11/03 04:16:42;;;;;;;11.23;8.27;;;;;;;;;;10337281;28;20044;-76
2021/11/03 04:21:42;;;;;;;10.20;7.88;;;;;;;;;;10337766;28;20030;-73
2021/11/03 04:26:43;;;;;;;10.65;8.32;;;;;;;;;;10336667;28;20391;-73
2021/11/03 04:31:44;;;;;;;11.55;9.55;;;;;;;;;;10353001;28;20113;-73
2021/11/03 04:36:45;;;;;;;11.88;10.60;;;;;;;;;;10353098;28;20030;-73
2021/11/03 04:41:45;;;;;;;18.05;11.27;;;;;;;;;;10339108;28;20026;-73
2021/11/03 04:46:45;;;;;;;12.77;11.48;;;;;;;;;;10338369;28;20065;-73
2021/11/03 04:51:45;;;;;;;11.25;10.30;;;;;;;;;;10339052;28;20033;-83
2021/11/03 04:56:46;;;;;;;14.48;10.25;;;;;;;;;;10338409;28;20268;-83
2021/11/03 05:01:46;;;;;;;11.55;9.65;;;;;;;;;;10336433;28;20034;-83
2021/11/03 05:06:48;;;;;;;16.27;11.50;;;;;;;;;;10353654;28;20037;-83
2021/11/03 05:11:48;;;;;;;16.48;11.65;;;;;;;;;;10353123;28;20054;-83
2021/11/03 05:16:48;;;;;;;31.80;12.82;;;;;;;;;;10353877;28;20042;-83
2021/11/03 05:21:51;;;;;;;13.10;9.98;;;;;;;;;;10353675;28;20026;-83
2021/11/03 05:26:53;;;;;;;15.70;13.88;;;;;;;;;;10342732;28;20307;-83
2021/11/03 05:31:53;;;;;;;21.73;15.82;;;;;;;;;;10366581;28;20113;-84
2021/11/03 05:36:53;;;;;;;22.10;17.38;;;;;;;;;;10374915;28;20033;-84
2021/11/03 05:41:54;;;;;;;24.17;16.80;;;;;;;;;;10337086;28;20061;-84
2021/11/03 05:46:55;;;;;;;20.88;16.08;;;;;;;;;;10335779;28;20387;-82
2021/11/03 05:51:56;;;;;;;19.40;15.98;;;;;;;;;;10340951;28;20030;-82
2021/11/03 05:56:56;;;;;;;17.63;15.25;;;;;;;;;;10336097;28;20038;-83
2021/11/03 06:01:57;;;;;;;19.33;14.75;;;;;;;;;;10350271;28;20106;-82
2021/11/03 06:06:57;;;;;;;18.30;16.25;;;;;;;;;;10335147;28;20064;-82
2021/11/03 06:11:57;;;;;;;20.10;15.45;;;;;;;;;;10336736;28;20068;-83
2021/11/03 06:16:57;;;;;;;25.17;17.95;;;;;;;;;;10349528;28;20105;-83
2021/11/03 06:21:58;;;;;;;21.33;16.25;;;;;;;;;;10350752;28;20050;-82
2021/11/03 06:26:58;;;;;;;25.23;17.80;;;;;;;;;;10333618;28;20041;-82
2021/11/03 06:31:58;;;;;;;34.53;17.98;;;;;;;;;;10334410;28;20062;-82
2021/11/03 06:36:58;;;;;;;24.58;20.85;;;;;;;;;;10334786;28;20057;-82
2021/11/03 06:41:59;;;;;;;31.58;25.33;;;;;;;;;;10333373;28;20033;-82
2021/11/03 06:46:59;;;;;;;29.52;23.55;;;;;;;;;;10336377;28;20093;-82
2021/11/03 06:51:59;;;;;;;29.05;23.67;;;;;;;;;;10349480;28;20108;-83
2021/11/03 06:57:02;;;;;;;27.38;24.52;;;;;;;;;;10333922;28;20443;-83
2021/11/03 07:02:03;;;;;;;26.80;23.13;;;;;;;;;;10350338;28;20034;-83
2021/11/03 07:07:04;;;;;;;35.90;20.77;;;;;;;;;;10352023;28;20041;-83
2021/11/03 07:12:04;;;;;;;29.40;21.77;;;;;;;;;;10349132;28;20054;-82
2021/11/03 07:17:06;;;;;;;22.97;20.57;;;;;;;;;;10349758;28;20102;-82
2021/11/03 07:22:07;;;;;;;27.48;20.65;;;;;;;;;;10334213;28;20260;-83
2021/11/03 07:27:07;;;;;;;24.27;21.67;;;;;;;;;;10334819;28;20371;-83
2021/11/03 07:32:08;;;;;;;24.75;22.15;;;;;;;;;;10350612;28;20026;-83
2021/11/03 07:37:08;;;;;;;30.30;22.08;;;;;;;;;;10354541;28;20124;-82
2021/11/03 07:42:08;;;;;;;30.90;21.25;;;;;;;;;;10358414;28;20026;-83
2021/11/03 07:47:09;;;;;;;31.20;24.80;;;;;;;;;;10349878;28;20041;-82
2021/11/03 07:52:09;;;;;;;37.38;27.50;;;;;;;;;;10350555;28;20030;-83
2021/11/03 07:57:09;;;;;;;44.85;31.50;;;;;;;;;;10346992;28;20088;-83
2021/11/03 08:02:09;;;;;;;39.70;32.13;;;;;;;;;;10356103;28;20045;-82
2021/11/03 08:07:11;;;;;;;44.45;30.80;;;;;;;;;;10355586;28;20416;-82
2021/11/03 08:12:11;;;;;;;32.65;29.25;;;;;;;;;;10340024;28;20192;-83
2021/11/03 08:17:13;;;;;;;41.90;30.58;;;;;;;;;;10339239;28;20606;-82
2021/11/03 08:22:20;;;;;;;34.78;24.27;;;;;;;;;;10344940;28;20450;-82
2021/11/03 08:27:22;;;;;;;33.35;26.05;;;;;;;;;;10348123;28;20032;-82
2021/11/03 08:32:29;;;;;;;31.63;26.30;;;;;;;;;;10342147;28;20084;-82
2021/11/03 08:37:30;;;;;;;30.77;24.67;;;;;;;;;;10359471;28;20042;-83
2021/11/03 08:42:31;;;;;;;44.28;32.55;;;;;;;;;;10357295;28;20037;-83
2021/11/03 08:47:32;;;;;;;52.17;37.10;;;;;;;;;;10337880;28;20030;-82
2021/11/03 08:52:32;;;;;;;37.85;30.52;;;;;;;;;;10355490;28;20026;-83
2021/11/03 08:57:33;;;;;;;38.67;28.25;;;;;;;;;;10354775;28;20113;-83
2021/11/03 09:02:33;;;;;;;38.78;32.35;;;;;;;;;;10340441;28;20081;-82
2021/11/03 09:07:34;;;;;;;40.05;32.00;;;;;;;;;;10353354;28;20093;-82
2021/11/03 09:12:35;;;;;;;36.80;32.15;;;;;;;;;;10354188;28;20054;-83
2021/11/03 09:17:35;;;;;;;36.03;31.52;;;;;;;;;;10355007;28;20034;-82
2021/11/03 09:22:37;;;;;;;32.15;26.15;;;;;;;;;;10355278;28;20033;-82
2021/11/03 09:27:37;;;;;;;40.45;26.85;;;;;;;;;;10353745;28;20050;-83
2021/11/03 09:32:39;;;;;;;36.30;28.25;;;;;;;;;;10368800;28;20050;-82
2021/11/03 09:37:40;;;;;;;37.20;30.20;;;;;;;;;;10366090;28;20030;-81
2021/11/03 09:42:40;;;;;;;37.00;31.30;;;;;;;;;;10365111;28;20030;-81
2021/11/03 09:47:40;;;;;;;33.35;28.67;;;;;;;;;;10346347;28;20366;-81
2021/11/03 09:52:45;;;;;;;37.13;28.35;;;;;;;;;;10358417;28;20061;-80
2021/11/03 09:58:02;;;;;;;38.22;28.13;;;;;;;;;;10338096;28;20116;-81
2021/11/03 10:03:21;;;;;;;31.63;22.92;;;;;;;;;;10338039;28;20456;-81
2021/11/03 10:08:22;;;;;;;25.52;19.73;;;;;;;;;;10341227;28;20027;-79
2021/11/03 10:13:24;;;;;;;23.48;19.30;;;;;;;;;;10356942;28;20046;-78
2021/11/03 10:18:25;;;;;;;23.13;19.40;;;;;;;;;;10355264;28;20038;-78
2021/11/03 10:23:27;;;;;;;18.52;14.90;;;;;;;;;;10348184;28;20383;-79
2021/11/03 10:28:37;;;;;;;19.75;16.40;;;;;;;;;;10351741;28;20092;-79
2021/11/03 10:33:39;;;;;;;18.67;16.50;;;;;;;;;;10334303;28;20117;-80
2021/11/03 10:38:44;;;;;;;18.35;14.57;;;;;;;;;;10351079;28;20379;-80
2021/11/03 10:43:45;;;;;;;18.88;15.63;;;;;;;;;;10350284;28;20041;-80
2021/11/03 10:48:46;;;;;;;20.77;15.63;;;;;;;;;;10349540;28;20445;-80
2021/11/03 10:53:54;;;;;;;26.30;17.27;;;;;;;;;;10334152;28;20031;-79
2021/11/03 10:59:04;;;;;;;22.40;16.10;;;;;;;;;;10333871;28;20029;-79
2021/11/03 11:04:07;;;;;;;18.60;16.10;;;;;;;;;;10350791;28;20029;-79
2021/11/03 11:09:11;;;;;;;18.30;15.77;;;;;;;;;;10332236;28;20022;-79
2021/11/03 11:14:17;;;;;;;25.98;14.45;;;;;;;;;;10340800;28;20035;-79
2021/11/03 11:19:28;;;;;;;8.77;5.72;;;;;;;;;;10360252;28;20037;-79
2021/11/03 11:24:47;;;;;;;1.20;1.20;;;;;;;;;;10357831;28;20053;-79
2021/11/03 11:29:59;;;;;;;8.20;4.95;;;;;;;;;;10341688;28;20085;-79
2021/11/03 11:35:02;;;;;;;5.07;4.57;;;;;;;;;;10341903;28;20547;-79
2021/11/03 11:40:21;;;;;;;7.53;4.55;;;;;;;;;;10357573;28;20069;-79
2021/11/03 11:45:25;;;;;;;5.65;4.00;;;;;;;;;;10342430;28;20026;-79
2021/11/03 11:50:40;;;;;;;3.75;3.45;;;;;;;;;;10358313;28;20415;-79
2021/11/03 11:55:40;;;;;;;7.10;2.42;;;;;;;;;;10356845;28;20028;-80
2021/11/03 12:00:40;;;;;;;10.45;2.58;;;;;;;;;;10359015;28;20050;-80
2021/11/03 12:05:45;;;;;;;5.50;2.50;;;;;;;;;;10359717;28;20492;-79
2021/11/03 12:10:54;;;;;;;4.25;3.55;;;;;;;;;;10340345;28;20124;-79
2021/11/03 12:15:54;;;;;;;3.33;2.80;;;;;;;;;;10339170;28;20539;-79
2021/11/03 12:20:57;;;;;;;3.28;2.92;;;;;;;;;;10341576;28;20105;-78
2021/11/03 12:26:15;;;;;;;2.40;2.30;;;;;;;;;;10339776;28;20377;-79
2021/11/03 12:31:17;;;;;;;4.18;1.83;;;;;;;;;;10340489;28;20022;-78
2021/11/03 12:36:20;;;;;;;9.52;2.50;;;;;;;;;;10340194;28;20365;-79
2021/11/03 12:41:22;;;;;;;2.33;2.13;;;;;;;;;;10338013;28;20033;-78
2021/11/03 12:46:22;;;;;;;1.80;1.70;;;;;;;;;;10339525;28;20029;-78
2021/11/03 12:51:27;;;;;;;2.28;2.17;;;;;;;;;;10340499;28;20040;-78
2021/11/03 12:56:32;;;;;;;5.28;3.05;;;;;;;;;;10358169;28;20101;-78
2021/11/03 13:01:43;;;;;;;3.05;2.67;;;;;;;;;;10338814;28;20033;-79
2021/11/03 13:06:47;;;;;;;8.32;3.70;;;;;;;;;;10352255;28;20033;-79
2021/11/03 13:11:48;;;;;;;4.22;3.53;;;;;;;;;;10335869;28;20118;-79
2021/11/03 13:16:48;;;;;;;3.10;2.80;;;;;;;;;;10339551;28;20031;-79
2021/11/03 13:21:49;;;;;;;2.25;2.08;;;;;;;;;;10351630;28;20088;-79
2021/11/03 13:26:49;;;;;;;2.60;2.22;;;;;;;;;;10351216;28;20449;-79
2021/11/03 13:32:02;;;;;;;3.30;3.00;;;;;;;;;;10350695;28;20065;-79
2021/11/03 13:37:05;;;;;;;4.00;2.30;;;;;;;;;;10335997;28;20037;-79
2021/11/03 13:42:24;;;;;;;4.72;2.00;;;;;;;;;;10350473;28;20026;-79
2021/11/03 13:47:26;;;;;;;2.35;2.15;;;;;;;;;;10334127;28;20136;-78
2021/11/03 13:52:26;;;;;;;5.40;1.95;;;;;;;;;;10334451;28;20026;-78
2021/11/03 13:57:36;;;;;;;5.30;1.92;;;;;;;;;;10349805;28;20096;-79
2021/11/03 14:02:37;;;;;;;3.25;1.38;;;;;;;;;;10334827;28;20122;-78
2021/11/03 14:07:40;;;;;;;2.92;2.45;;;;;;;;;;10334645;28;20030;-79
2021/11/03 14:12:40;;;;;;;1.73;1.63;;;;;;;;;;10333595;28;20062;-78
2021/11/03 14:17:42;;;;;;;5.50;2.08;;;;;;;;;;10333412;28;20129;-78
2021/11/03 14:22:42;;;;;;;3.33;1.67;;;;;;;;;;10349408;28;20025;-78
2021/11/03 14:27:42;;;;;;;4.18;1.55;;;;;;;;;;10350455;28;20063;-78
2021/11/03 14:32:42;;;;;;;2.65;1.88;;;;;;;;;;10339655;28;20036;-80
2021/11/03 14:37:43;;;;;;;5.40;1.48;;;;;;;;;;10349723;28;20030;-81
2021/11/03 14:42:43;;;;;;;2.63;1.42;;;;;;;;;;10352656;28;20530;-81
2021/11/03 14:47:43;;;;;;;0.90;0.90;;;;;;;;;;10354526;28;20147;-84
2021/11/03 14:52:44;;;;;;;5.05;1.95;;;;;;;;;;10342435;28;20022;-84
2021/11/03 14:57:44;;;;;;;4.17;1.43;;;;;;;;;;10358291;28;20027;-84
2021/11/03 15:02:46;;;;;;;1.17;1.08;;;;;;;;;;10358596;28;20686;-84
2021/11/03 15:07:46;;;;;;;1.70;1.60;;;;;;;;;;10358474;28;20057;-83
2021/11/03 15:12:47;;;;;;;1.30;1.13;;;;;;;;;;10357169;28;20133;-83
2021/11/03 15:17:50;;;;;;;2.13;1.88;;;;;;;;;;10357534;28;20065;-83
2021/11/03 15:22:50;;;;;;;3.88;1.45;;;;;;;;;;10356745;28;20374;-83
2021/11/03 15:27:50;;;;;;;3.15;1.20;;;;;;;;;;10356870;28;20121;-83
2021/11/03 15:32:51;;;;;;;1.92;1.55;;;;;;;;;;10357155;28;20073;-83
2021/11/03 15:37:51;;;;;;;4.43;2.13;;;;;;;;;;10341354;28;20034;-82
2021/11/03 15:42:52;;;;;;;1.70;1.60;;;;;;;;;;10359187;28;20022;-83
2021/11/03 15:47:52;;;;;;;2.05;1.92;;;;;;;;;;10342009;28;20026;-83
2021/11/03 15:52:53;;;;;;;3.30;1.97;;;;;;;;;;10355244;28;20149;-83
2021/11/03 15:57:53;;;;;;;1.40;1.35;;;;;;;;;;10340910;28;20365;-83
2021/11/03 16:03:03;;;;;;;4.97;2.20;;;;;;;;;;10356592;28;20113;-83
2021/11/03 16:08:04;;;;;;;2.60;2.40;;;;;;;;;;10354504;28;20024;-83
2021/11/03 16:13:04;;;;;;;14.82;3.58;;;;;;;;;;10339105;28;20058;-82
2021/11/03 16:18:05;;;;;;;10.27;3.15;;;;;;;;;;10339519;28;20443;-83
2021/11/03 16:23:06;;;;;;;4.47;3.35;;;;;;;;;;10355000;28;20026;-83
2021/11/03 16:28:09;;;;;;;6.50;3.95;;;;;;;;;;10354202;28;20030;-82
2021/11/03 16:33:10;;;;;;;4.30;4.00;;;;;;;;;;10354027;28;20068;-83
2021/11/03 16:38:10;;;;;;;9.13;5.35;;;;;;;;;;10337509;28;20064;-82
2021/11/03 16:43:15;;;;;;;8.95;5.95;;;;;;;;;;10337523;28;20029;-82
2021/11/03 16:48:17;;;;;;;9.38;6.32;;;;;;;;;;10365094;28;20027;-82
2021/11/03 16:53:21;;;;;;;5.75;4.90;;;;;;;;;;10352615;28;20025;-83
2021/11/03 16:58:22;;;;;;;6.78;6.22;;;;;;;;;;10353028;28;20030;-82
2021/11/03 17:03:23;;;;;;;7.65;5.78;;;;;;;;;;10353661;28;20022;-83
2021/11/03 17:08:27;;;;;;;10.77;8.63;;;;;;;;;;10353389;28;20034;-83
2021/11/03 17:13:27;;;;;;;10.50;7.82;;;;;;;;;;10338068;28;20108;-83
2021/11/03 17:18:28;;;;;;;13.90;7.40;;;;;;;;;;10352252;28;20076;-82
2021/11/03 17:23:28;;;;;;;13.82;6.43;;;;;;;;;;10345811;28;20024;-82
2021/11/03 17:28:34;;;;;;;9.30;7.90;;;;;;;;;;10344455;28;20436;-82
2021/11/03 17:33:34;;;;;;;17.98;8.80;;;;;;;;;;10352636;28;20030;-83
2021/11/03 17:38:34;;;;;;;10.88;7.72;;;;;;;;;;10335109;28;20145;-82
2021/11/03 17:43:36;;;;;;;15.50;8.90;;;;;;;;;;10335868;28;20030;-83
2021/11/03 17:48:37;;;;;;;10.90;8.98;;;;;;;;;;10351911;28;20026;-83
2021/11/03 17:53:37;;;;;;;11.13;10.13;;;;;;;;;;10336503;28;20026;-83
2021/11/03 17:58:37;;;;;;;13.93;10.48;;;;;;;;;;10336463;28;20176;-83
2021/11/03 18:03:39;;;;;;;17.60;10.70;;;;;;;;;;10352730;28;20022;-82
2021/11/03 18:08:40;;;;;;;12.18;8.93;;;;;;;;;;10352263;28;20041;-82
2021/11/03 18:13:40;;;;;;;15.97;10.70;;;;;;;;;;10338680;28;20487;-82
2021/11/03 18:18:40;;;;;;;19.65;11.60;;;;;;;;;;10366672;28;20272;-81
2021/11/03 18:23:41;;;;;;;15.40;11.38;;;;;;;;;;10394602;28;20444;-83
2021/11/03 18:28:41;;;;;;;14.23;12.45;;;;;;;;;;10357937;28;20026;-83
2021/11/03 18:33:41;;;;;;;20.23;12.73;;;;;;;;;;10360223;28;20066;-83
2021/11/03 18:38:43;;;;;;;14.93;11.57;;;;;;;;;;10348655;28;20050;-83
2021/11/03 18:43:44;;;;;;;19.13;15.93;;;;;;;;;;10351378;28;20102;-83
2021/11/03 18:48:44;;;;;;;24.52;14.20;;;;;;;;;;10334019;28;20060;-84
2021/11/03 18:53:46;;;;;;;16.27;11.52;;;;;;;;;;10336277;28;20042;-82
2021/11/03 18:58:46;;;;;;;17.50;13.18;;;;;;;;;;10354373;28;20034;-83
2021/11/03 19:03:47;;;;;;;27.17;14.85;;;;;;;;;;10363900;28;20113;-83
2021/11/03 19:08:47;;;;;;;27.17;14.60;;;;;;;;;;10364589;28;20027;-83
2021/11/03 19:13:47;;;;;;;21.92;12.35;;;;;;;;;;10350682;28;20498;-83
2021/11/03 19:18:48;;;;;;;17.87;12.53;;;;;;;;;;10350077;28;20037;-84
2021/11/03 19:23:49;;;;;;;17.67;13.68;;;;;;;;;;10349855;28;20284;-83
2021/11/03 19:28:49;;;;;;;16.60;14.60;;;;;;;;;;10350167;28;20033;-83
2021/11/03 19:33:50;;;;;;;17.97;13.87;;;;;;;;;;10355725;28;20436;-84
2021/11/03 19:38:50;;;;;;;17.98;12.52;;;;;;;;;;10346238;28;20291;-85
2021/11/03 19:43:50;;;;;;;16.85;13.55;;;;;;;;;;10342754;28;20686;-82
2021/11/03 19:48:51;;;;;;;21.40;13.43;;;;;;;;;;10359156;28;20049;-84
2021/11/03 19:53:54;;;;;;;13.50;12.18;;;;;;;;;;10352078;28;20045;-84
2021/11/03 19:58:55;;;;;;;94.93;57.05;;;;;;;;;;10341329;28;20026;-83
2021/11/03 20:03:55;;;;;;;49.42;28.42;;;;;;;;;;10339098;28;20458;-83
2021/11/03 20:08:56;;;;;;;24.90;19.05;;;;;;;;;;10356759;28;20042;-83
2021/11/03 20:13:57;;;;;;;21.05;14.70;;;;;;;;;;10356375;28;20050;-83
2021/11/03 20:19:04;;;;;;;19.35;13.77;;;;;;;;;;10339699;28;20026;-83
2021/11/03 20:24:05;;;;;;;20.83;15.50;;;;;;;;;;10339800;28;20041;-83
2021/11/03 20:29:05;;;;;;;19.33;15.45;;;;;;;;;;10339593;28;20022;-84
2021/11/03 20:34:17;;;;;;;29.48;17.67;;;;;;;;;;10354550;28;20486;-83
2021/11/03 20:39:18;;;;;;;21.08;14.98;;;;;;;;;;10339627;28;20038;-84
2021/11/03 20:44:18;;;;;;;22.02;14.60;;;;;;;;;;10354971;28;20030;-83
2021/11/03 20:49:18;;;;;;;19.23;14.70;;;;;;;;;;10338423;28;20388;-85
2021/11/03 20:54:18;;;;;;;291.08;185.63;;;;;;;;;;10360111;28;20279;-83
2021/11/03 20:59:19;;;;;;;47.35;32.83;;;;;;;;;;10339316;28;20090;-84
2021/11/03 21:04:19;;;;;;;31.75;20.15;;;;;;;;;;10368114;28;20057;-85
2021/11/03 21:09:19;;;;;;;23.40;16.40;;;;;;;;;;10349199;28;20284;-84
2021/11/03 21:14:20;;;;;;;22.58;15.63;;;;;;;;;;10345285;28;20026;-84
2021/11/03 21:19:20;;;;;;;18.38;15.05;;;;;;;;;;10350815;28;20030;-84
2021/11/03 21:24:20;;;;;;;26.10;16.17;;;;;;;;;;10365943;28;20369;-85
2021/11/03 21:29:21;;;;;;;281.73;180.23;;;;;;;;;;10351546;28;20129;-84
2021/11/03 21:34:21;;;;;;;102.38;61.75;;;;;;;;;;10352479;28;20034;-86
2021/11/03 21:39:22;;;;;;;41.97;26.23;;;;;;;;;;10336142;28;20440;-85
2021/11/03 21:44:22;;;;;;;24.85;18.80;;;;;;;;;;10336204;28;20023;-84
2021/11/03 21:49:22;;;;;;;22.83;19.52;;;;;;;;;;10350890;28;20039;-84
2021/11/03 21:54:23;;;;;;;17.93;15.63;;;;;;;;;;10335704;28;20038;-85
2021/11/03 21:59:23;;;;;;;22.50;17.30;;;;;;;;;;10342125;28;20271;-88
2021/11/03 22:04:24;;;;;;;35.97;23.77;;;;;;;;;;10350428;28;20037;-84
2021/11/03 22:09:24;;;;;;;24.45;20.08;;;;;;;;;;10351582;28;20034;-85
2021/11/03 22:14:25;;;;;;;22.63;16.40;;;;;;;;;;10351562;28;20044;-85
2021/11/03 22:19:25;;;;;;;15.18;13.68;;;;;;;;;;10360278;28;20034;-84
2021/11/03 22:24:25;;;;;;;18.13;14.43;;;;;;;;;;10350294;28;20032;-85
2021/11/03 22:29:26;;;;;;;27.98;15.25;;;;;;;;;;10350885;28;20383;-85
2021/11/03 22:34:26;;;;;;;18.47;13.37;;;;;;;;;;10335119;28;20113;-86
2021/11/03 22:39:29;;;;;;;15.65;12.30;;;;;;;;;;10350171;28;20295;-85
2021/11/03 22:44:30;;;;;;;19.92;14.30;;;;;;;;;;10333242;28;20076;-85
2021/11/03 22:49:30;;;;;;;15.65;13.75;;;;;;;;;;10349716;28;20117;-85
2021/11/03 22:54:30;;;;;;;17.67;13.93;;;;;;;;;;10350558;28;20117;-85
2021/11/03 22:59:31;;;;;;;17.38;12.07;;;;;;;;;;10334894;28;20271;-85
2021/11/03 23:04:31;;;;;;;20.27;12.90;;;;;;;;;;10349708;28;20034;-86
2021/11/03 23:09:31;;;;;;;20.38;15.80;;;;;;;;;;10338287;28;20065;-86
2021/11/03 23:14:31;;;;;;;16.85;13.88;;;;;;;;;;10341571;28;20027;-85
2021/11/03 23:19:32;;;;;;;17.58;12.57;;;;;;;;;;10358664;28;20054;-85
2021/11/03 23:24:32;;;;;;;22.88;14.68;;;;;;;;;;10342747;28;20031;-86
2021/11/03 23:29:32;;;;;;;14.88;12.80;;;;;;;;;;10350889;28;20026;-85
2021/11/03 23:34:32;;;;;;;18.92;14.82;;;;;;;;;;10380864;28;20035;-85
2021/11/03 23:39:33;;;;;;;22.05;15.13;;;;;;;;;;10354006;28;20038;-86
2021/11/03 23:44:33;;;;;;;15.10;13.55;;;;;;;;;;10356394;28;20062;-85
2021/11/03 23:49:34;;;;;;;16.67;13.98;;;;;;;;;;10356260;28;20038;-86
2021/11/03 23:54:34;;;;;;;17.55;13.88;;;;;;;;;;10339698;28;20468;-86
2021/11/03 23:59:34;;;;;;;18.63;15.38;;;;;;;;;;10355623;28;20464;-85
